Time;durP1;ratioP1;P1;durP2;ratioP2;P2;SDS_P1;SDS_P2;PMS_P1;PMS_P2;Temp;Humidity;BMP_temperature;BMP_pressure;BME280_temperature;BME280_humidity;BME280_pressure;Samples;Min_cycle;Max_cycle;Signal;HPM_P1;HPM_P2
2023/04/18 00:01:20;;;;;;;6.10;5.50;;;;;;;8.60;100.00;98131.04;106723;1276;24269;-75
2023/04/18 00:03:51;;;;;;;8.10;7.30;;;;;;;8.62;100.00;98130.66;106723;1276;25491;-74
2023/04/18 00:06:21;;;;;;;7.40;6.70;;;;;;;8.64;100.00;98128.65;106744;1276;22570;-75
2023/04/18 00:08:49;;;;;;;7.60;6.90;;;;;;;8.66;100.00;98129.77;106727;1276;22541;-76
2023/04/18 00:11:17;;;;;;;7.30;6.10;;;;;;;8.68;100.00;98124.91;106716;1276;24239;-76
2023/04/18 00:13:46;;;;;;;7.40;6.70;;;;;;;8.68;100.00;98122.60;106726;1276;22652;-75
2023/04/18 00:16:14;;;;;;;7.20;6.50;;;;;;;8.68;100.00;98123.95;106758;1276;22526;-75
2023/04/18 00:18:42;;;;;;;59.40;53.70;;;;;;;8.69;100.00;98122.28;106660;1276;25435;-75
2023/04/18 00:21:10;;;;;;;10.30;9.30;;;;;;;8.69;100.00;98124.00;106704;1276;22849;-74
2023/04/18 00:23:38;;;;;;;8.20;7.40;;;;;;;8.70;100.00;98120.98;106743;1276;22544;-74
2023/04/18 00:26:06;;;;;;;11.60;10.50;;;;;;;8.69;100.00;98128.14;106756;1276;22705;-75
2023/04/18 00:28:34;;;;;;;11.10;8.40;;;;;;;8.69;100.00;98127.38;106724;1276;23184;-75
2023/04/18 00:31:02;;;;;;;9.20;7.90;;;;;;;8.69;100.00;98132.37;106736;1276;22640;-76
2023/04/18 00:33:33;;;;;;;8.50;7.50;;;;;;;8.68;100.00;98130.23;106706;1276;25367;-76
2023/04/18 00:36:01;;;;;;;8.80;7.80;;;;;;;8.68;100.00;98136.41;106702;1276;22535;-76
2023/04/18 00:38:29;;;;;;;8.80;7.60;;;;;;;8.68;100.00;98138.06;106715;1276;25326;-73
2023/04/18 00:40:57;;;;;;;9.60;8.50;;;;;;;8.69;100.00;98133.93;106714;1276;22534;-74
2023/04/18 00:43:25;;;;;;;10.20;9.30;;;;;;;8.69;100.00;98136.02;106718;1276;25237;-74
2023/04/18 00:45:55;;;;;;;10.90;9.00;;;;;;;8.67;100.00;98132.23;106728;1276;22536;-75
2023/04/18 00:48:24;;;;;;;9.30;8.30;;;;;;;8.65;100.00;98133.41;106823;1276;22527;-75
2023/04/18 00:50:54;;;;;;;10.10;7.60;;;;;;;8.66;100.00;98135.68;106771;1276;22522;-74
2023/04/18 00:53:23;;;;;;;8.50;7.70;;;;;;;8.66;100.00;98133.20;106831;1276;26522;-75
2023/04/18 00:55:52;;;;;;;8.00;7.20;;;;;;;8.67;100.00;98135.97;106644;1276;22787;-75
2023/04/18 00:58:20;;;;;;;11.10;10.00;;;;;;;8.67;100.00;98136.52;106820;1276;22618;-77
2023/04/18 01:00:47;;;;;;;16.80;15.30;;;;;;;8.67;100.00;98137.33;106856;1276;25374;-75
2023/04/18 01:03:17;;;;;;;12.30;10.70;;;;;;;8.67;100.00;98133.35;106796;1276;24355;-78
2023/04/18 01:05:46;;;;;;;10.40;9.40;;;;;;;8.68;100.00;98132.11;106795;1276;22619;-76
2023/04/18 01:08:15;;;;;;;9.40;8.50;;;;;;;8.68;100.00;98138.70;106777;1276;22592;-75
2023/04/18 01:10:44;;;;;;;9.10;8.10;;;;;;;8.67;100.00;98134.20;106781;1276;24361;-76
2023/04/18 01:13:17;;;;;;;9.20;7.90;;;;;;;8.66;100.00;98129.45;106740;1276;25385;-77
2023/04/18 01:15:47;;;;;;;8.60;7.80;;;;;;;8.64;100.00;98131.05;106705;1272;22533;-76
2023/04/18 01:18:16;;;;;;;24.80;22.40;;;;;;;8.63;100.00;98128.12;106733;1276;22633;-76
2023/04/18 01:20:48;;;;;;;10.80;9.60;;;;;;;8.61;100.00;98125.30;106708;1276;22776;-74
2023/04/18 01:23:20;;;;;;;12.80;9.70;;;;;;;8.60;100.00;98131.85;106783;1276;22489;-75
2023/04/18 01:25:48;;;;;;;8.50;7.70;;;;;;;8.60;100.00;98130.88;106719;1276;22527;-75
2023/04/18 01:28:20;;;;;;;9.50;8.40;;;;;;;8.60;100.00;98134.05;106732;1276;22533;-75
2023/04/18 01:30:48;;;;;;;9.60;7.70;;;;;;;8.59;100.00;98125.73;106505;1276;24361;-75
2023/04/18 01:33:16;;;;;;;8.30;7.30;;;;;;;8.58;100.00;98131.69;106783;1276;22640;-75
2023/04/18 01:35:45;;;;;;;13.50;12.20;;;;;;;8.57;100.00;98129.94;106792;1276;22527;-77
2023/04/18 01:38:13;;;;;;;9.70;8.80;;;;;;;8.57;100.00;98131.77;107078;1276;22627;-75
2023/04/18 01:40:41;;;;;;;12.00;10.80;;;;;;;8.57;100.00;98134.23;106894;1276;23485;-80
2023/04/18 01:43:09;;;;;;;10.20;9.20;;;;;;;8.57;100.00;98136.23;106826;1276;22626;-75
2023/04/18 01:45:37;;;;;;;12.60;11.40;;;;;;;8.57;100.00;98131.55;106819;1276;25473;-74
2023/04/18 01:48:05;;;;;;;10.90;9.90;;;;;;;8.57;100.00;98137.09;106851;1276;22643;-74
2023/04/18 01:50:36;;;;;;;9.20;8.40;;;;;;;8.58;100.00;98139.81;106546;1276;22629;-76
2023/04/18 01:53:04;;;;;;;10.30;8.20;;;;;;;8.57;100.00;98138.96;106761;1276;22530;-76
2023/04/18 01:55:32;;;;;;;9.10;8.20;;;;;;;8.58;100.00;98139.21;106790;1276;25557;-77
2023/04/18 01:58:00;;;;;;;11.10;10.00;;;;;;;8.59;100.00;98143.02;106502;1276;24166;-76
2023/04/18 02:00:28;;;;;;;13.60;12.30;;;;;;;8.59;100.00;98143.08;106532;1276;25412;-77
2023/04/18 02:02:58;;;;;;;11.80;10.40;;;;;;;8.59;100.00;98141.15;106810;1276;22546;-77
2023/04/18 02:05:26;;;;;;;10.20;9.10;;;;;;;8.59;100.00;98144.54;106943;1276;22530;-75
2023/04/18 02:07:54;;;;;;;12.90;11.60;;;;;;;8.58;100.00;98141.26;106790;1273;22520;-75
2023/04/18 02:10:23;;;;;;;11.00;9.90;;;;;;;8.58;100.00;98139.38;106726;1276;22563;-76
2023/04/18 02:12:51;;;;;;;9.20;8.20;;;;;;;8.57;100.00;98134.06;106719;1276;24381;-76
2023/04/18 02:15:19;;;;;;;10.30;8.90;;;;;;;8.57;100.00;98136.23;106424;1276;22575;-76
2023/04/18 02:17:47;;;;;;;10.00;9.00;;;;;;;8.57;100.00;98131.48;106719;1276;25454;-76
2023/04/18 02:20:15;;;;;;;11.40;10.30;;;;;;;8.57;100.00;98129.34;106508;1276;22535;-75
2023/04/18 02:22:43;;;;;;;11.90;10.80;;;;;;;8.58;100.00;98128.25;106800;1276;24473;-76
2023/04/18 02:25:11;;;;;;;9.50;8.50;;;;;;;8.61;100.00;98130.81;106764;1276;24236;-74
2023/04/18 02:27:40;;;;;;;10.80;9.60;;;;;;;8.61;100.00;98129.20;106796;1276;23038;-75
2023/04/18 02:30:08;;;;;;;9.80;8.80;;;;;;;8.60;100.00;98124.86;106801;1253;22535;-75
2023/04/18 02:32:36;;;;;;;11.30;10.30;;;;;;;8.58;100.00;98123.86;106673;1276;22647;-74
2023/04/18 02:35:05;;;;;;;9.80;8.90;;;;;;;8.57;100.00;98127.30;106720;1276;22834;-74
2023/04/18 02:37:33;;;;;;;10.00;8.20;;;;;;;8.59;100.00;98129.01;106535;1276;22532;-75
2023/04/18 02:40:03;;;;;;;11.00;9.20;;;;;;;8.60;100.00;98129.59;106795;1276;24359;-74
2023/04/18 02:42:32;;;;;;;11.00;9.80;;;;;;;8.62;100.00;98128.77;106816;1276;22960;-74
2023/04/18 02:45:01;;;;;;;8.70;7.70;;;;;;;8.62;100.00;98129.85;106803;1276;22633;-75
2023/04/18 02:47:29;;;;;;;9.60;8.50;;;;;;;8.62;100.00;98127.46;106735;1276;22532;-74
2023/04/18 02:50:10;;;;;;;11.10;10.00;;;;;;;8.63;100.00;98129.23;106538;1276;22534;-75
2023/04/18 02:52:38;;;;;;;12.70;11.40;;;;;;;8.62;100.00;98128.34;106708;1276;22548;-73
2023/04/18 02:55:08;;;;;;;10.60;9.60;;;;;;;8.60;100.00;98128.03;106526;1276;22521;-73
2023/04/18 02:57:38;;;;;;;9.60;8.70;;;;;;;8.61;100.00;98128.45;106495;1276;25222;-73
2023/04/18 03:00:25;;;;;;;10.30;9.30;;;;;;;8.61;100.00;98129.20;106814;1276;26557;-73
2023/04/18 03:03:01;;;;;;;10.10;9.10;;;;;;;8.61;100.00;98132.21;106773;1276;22572;-74
2023/04/18 03:05:41;;;;;;;12.10;11.10;;;;;;;8.60;100.00;98130.30;106813;1276;24445;-74
2023/04/18 03:08:10;;;;;;;12.60;11.40;;;;;;;8.61;100.00;98136.19;106636;1276;22992;-73
2023/04/18 03:10:38;;;;;;;13.10;11.70;;;;;;;8.61;100.00;98135.75;106780;1275;24718;-72
2023/04/18 03:13:07;;;;;;;11.60;10.40;;;;;;;8.62;100.00;98132.38;106906;1276;22579;-73
2023/04/18 03:15:36;;;;;;;11.30;10.20;;;;;;;8.63;100.00;98134.77;106514;1276;23371;-74
2023/04/18 03:18:05;;;;;;;13.80;12.50;;;;;;;8.65;100.00;98135.84;106749;1276;22769;-74
2023/04/18 03:20:36;;;;;;;13.30;11.90;;;;;;;8.64;100.00;98135.73;106729;1276;23065;-72
2023/04/18 03:23:06;;;;;;;15.10;12.70;;;;;;;8.64;100.00;98137.17;106687;1276;22531;-75
2023/04/18 03:25:36;;;;;;;14.00;12.70;;;;;;;8.65;100.00;98137.88;106726;1276;22638;-75
2023/04/18 03:28:04;;;;;;;15.70;14.10;;;;;;;8.67;100.00;98141.95;106760;1276;25699;-75
2023/04/18 03:30:33;;;;;;;16.00;14.50;;;;;;;8.67;100.00;98143.73;107080;1276;22523;-76
2023/04/18 03:33:01;;;;;;;14.00;12.70;;;;;;;8.67;100.00;98142.42;106752;1276;22526;-76
2023/04/18 03:35:30;;;;;;;14.70;13.30;;;;;;;8.68;100.00;98147.30;106798;1276;25319;-76
2023/04/18 03:37:58;;;;;;;14.10;12.70;;;;;;;8.67;100.00;98141.20;106754;1276;24356;-76
2023/04/18 03:40:33;;;;;;;14.10;12.70;;;;;;;8.67;100.00;98147.00;106699;1276;22533;-76
2023/04/18 03:43:06;;;;;;;14.10;12.70;;;;;;;8.66;100.00;98150.09;106697;1270;22938;-76
2023/04/18 03:45:34;;;;;;;14.50;13.00;;;;;;;8.66;100.00;98151.85;106736;1275;25325;-76
2023/04/18 03:48:02;;;;;;;13.80;12.50;;;;;;;8.66;100.00;98155.02;106722;1276;22649;-76
2023/04/18 03:50:33;;;;;;;43.00;38.60;;;;;;;8.68;100.00;98154.14;106958;1276;22934;-75
2023/04/18 03:53:03;;;;;;;22.90;20.70;;;;;;;8.68;100.00;98159.67;107271;1276;22651;-75
2023/04/18 03:55:32;;;;;;;16.20;14.70;;;;;;;8.68;100.00;98165.69;106762;1276;22535;-76
2023/04/18 03:58:02;;;;;;;18.50;16.70;;;;;;;8.70;100.00;98163.48;106464;1276;22527;-75
2023/04/18 04:00:30;;;;;;;15.20;13.90;;;;;;;8.70;100.00;98164.50;106446;1276;25222;-75
2023/04/18 04:03:01;;;;;;;18.30;16.40;;;;;;;8.69;100.00;98166.27;106892;1276;22599;-76
2023/04/18 04:05:29;;;;;;;17.60;15.90;;;;;;;8.67;100.00;98171.06;106711;1276;22532;-78
2023/04/18 04:07:57;;;;;;;17.00;15.30;;;;;;;8.67;100.00;98175.79;107572;1275;25272;-76
2023/04/18 04:10:26;;;;;;;17.80;15.90;;;;;;;8.69;100.00;98176.38;106891;1276;22602;-76
2023/04/18 04:12:54;;;;;;;26.30;24.10;;;;;;;8.70;100.00;98178.58;106652;1276;25474;-76
2023/04/18 04:15:22;;;;;;;24.50;22.00;;;;;;;8.72;100.00;98183.34;106734;1276;22632;-75
2023/04/18 04:17:56;;;;;;;22.90;20.80;;;;;;;8.74;100.00;98186.17;106827;1276;24999;-77
2023/04/18 04:20:25;;;;;;;19.20;17.50;;;;;;;8.74;100.00;98189.02;106743;1276;24201;-77
2023/04/18 04:23:00;;;;;;;19.40;17.60;;;;;;;8.73;100.00;98184.20;106900;1276;24197;-75
2023/04/18 04:25:28;;;;;;;19.10;17.10;;;;;;;8.71;100.00;98185.72;106537;1276;22658;-75
2023/04/18 04:28:01;;;;;;;19.50;16.10;;;;;;;8.72;100.00;98190.11;106706;1276;22603;-77
2023/04/18 04:30:32;;;;;;;16.00;14.50;;;;;;;8.74;100.00;98197.24;106461;1276;24377;-73
2023/04/18 04:33:00;;;;;;;20.70;18.70;;;;;;;8.76;100.00;98195.93;106683;1276;25331;-73
2023/04/18 04:35:29;;;;;;;18.20;16.60;;;;;;;8.77;100.00;98200.55;106707;1276;22530;-75
2023/04/18 04:37:57;;;;;;;20.20;18.20;;;;;;;8.78;100.00;98204.08;106449;1276;24242;-73
2023/04/18 04:40:31;;;;;;;20.20;18.50;;;;;;;8.79;100.00;98204.61;106806;1276;26506;-75
2023/04/18 04:43:14;;;;;;;20.10;18.00;;;;;;;8.82;100.00;98206.05;106787;1276;24393;-77
2023/04/18 04:45:44;;;;;;;21.20;19.40;;;;;;;8.86;100.00;98212.21;106909;1276;25289;-77
2023/04/18 04:48:12;;;;;;;17.10;15.50;;;;;;;8.90;100.00;98210.56;106904;1276;22755;-76
2023/04/18 04:50:51;;;;;;;18.40;16.80;;;;;;;8.93;100.00;98215.27;106836;1276;25277;-75
2023/04/18 04:53:19;;;;;;;18.70;16.80;;;;;;;8.95;100.00;98217.58;106497;1276;22637;-75
2023/04/18 04:55:48;;;;;;;17.20;15.50;;;;;;;8.94;100.00;98220.27;106725;1276;24372;-76
2023/04/18 04:58:17;;;;;;;32.30;29.40;;;;;;;8.96;100.00;98223.69;106776;1276;23145;-75
2023/04/18 05:00:59;;;;;;;19.10;16.20;;;;;;;8.93;100.00;98228.66;106747;1276;22553;-77
2023/04/18 05:03:27;;;;;;;16.90;15.40;;;;;;;8.90;100.00;98232.23;106678;1276;24077;-75
2023/04/18 05:05:57;;;;;;;15.60;12.80;;;;;;;8.89;100.00;98238.37;106594;1276;22525;-77
2023/04/18 05:08:25;;;;;;;15.90;14.30;;;;;;;8.89;100.00;98239.29;106730;1276;22528;-78
2023/04/18 05:10:54;;;;;;;15.20;13.80;;;;;;;8.88;100.00;98242.89;106806;1276;25367;-78
2023/04/18 05:13:22;;;;;;;24.90;22.40;;;;;;;8.86;100.00;98241.33;107016;1276;22772;-76
2023/04/18 05:15:51;;;;;;;21.60;19.30;;;;;;;8.82;99.88;98244.26;107042;1276;22918;-75
2023/04/18 05:18:19;;;;;;;17.20;15.40;;;;;;;8.80;100.00;98252.98;106879;1276;23300;-76
2023/04/18 05:20:47;;;;;;;19.00;16.50;;;;;;;8.84;100.00;98251.50;106891;1276;22540;-78
2023/04/18 05:23:15;;;;;;;17.00;15.20;;;;;;;8.85;100.00;98255.15;106963;1276;22800;-76
2023/04/18 05:25:43;;;;;;;17.00;15.40;;;;;;;8.88;99.97;98256.95;106873;1276;25265;-74
2023/04/18 05:28:11;;;;;;;16.40;14.90;;;;;;;8.88;99.81;98256.96;106816;1276;25762;-81
2023/04/18 05:30:39;;;;;;;15.20;13.70;;;;;;;8.89;99.56;98260.45;106924;1276;22519;-82
2023/04/18 05:33:07;;;;;;;15.80;14.30;;;;;;;8.96;100.00;98263.20;106916;1276;25471;-79
2023/04/18 05:35:35;;;;;;;16.70;13.80;;;;;;;9.02;99.68;98263.33;106961;1276;24373;-78
2023/04/18 05:38:03;;;;;;;17.70;16.00;;;;;;;9.08;99.80;98265.16;107064;1276;22626;-81
2023/04/18 05:40:31;;;;;;;15.30;13.70;;;;;;;9.17;99.72;98265.96;107039;1276;22527;-78
2023/04/18 05:42:59;;;;;;;20.30;18.10;;;;;;;9.26;99.91;98273.36;106839;1276;26574;-78
2023/04/18 05:45:27;;;;;;;17.30;15.60;;;;;;;9.33;99.24;98265.84;107023;1276;22786;-77
2023/04/18 05:47:56;;;;;;;18.20;16.40;;;;;;;9.31;98.98;98273.17;106893;1276;171320;-76
2023/04/18 05:50:24;;;;;;;16.60;14.60;;;;;;;9.36;99.31;98270.28;106842;1276;22587;-78
2023/04/18 05:52:52;;;;;;;17.20;15.60;;;;;;;9.41;99.14;98270.35;106949;1276;23938;-76
2023/04/18 05:55:20;;;;;;;15.50;14.10;;;;;;;9.45;98.92;98266.86;106714;1276;22773;-75
2023/04/18 05:57:47;;;;;;;15.30;13.80;;;;;;;9.45;98.29;98266.86;106716;1276;22524;-73
2023/04/18 06:00:16;;;;;;;18.10;16.30;;;;;;;9.42;98.24;98273.14;106721;1276;25610;-74
2023/04/18 06:02:45;;;;;;;19.20;17.40;;;;;;;9.39;97.34;98272.94;106691;1276;24263;-74
2023/04/18 06:05:13;;;;;;;19.40;17.70;;;;;;;9.35;97.26;98274.52;106748;1276;23162;-72
2023/04/18 06:07:41;;;;;;;22.00;19.60;;;;;;;9.35;98.07;98271.14;106736;1276;22535;-72
2023/04/18 06:10:12;;;;;;;18.40;16.60;;;;;;;9.41;97.63;98273.03;106707;1276;25472;-74
2023/04/18 06:12:40;;;;;;;18.10;16.20;;;;;;;9.47;97.77;98276.42;106647;1276;26590;-74
2023/04/18 06:15:09;;;;;;;18.70;16.80;;;;;;;9.56;97.76;98279.20;106700;1276;26715;-74
2023/04/18 06:17:37;;;;;;;16.80;15.10;;;;;;;9.60;97.05;98279.44;106655;1276;22529;-74
2023/04/18 06:20:06;;;;;;;20.40;16.20;;;;;;;9.62;96.84;98286.19;106746;1276;24203;-74
2023/04/18 06:22:33;;;;;;;20.80;17.70;;;;;;;9.62;96.68;98288.24;106722;1276;22532;-74
2023/04/18 06:25:02;;;;;;;19.40;17.60;;;;;;;9.66;97.32;98290.95;106699;1276;22534;-76
2023/04/18 06:27:30;;;;;;;17.80;16.00;;;;;;;9.73;97.21;98290.79;106861;1276;25246;-75
2023/04/18 06:29:59;;;;;;;22.10;17.40;;;;;;;9.81;96.79;98295.23;106729;1276;22541;-75
2023/04/18 06:32:27;;;;;;;19.20;17.20;;;;;;;9.83;96.56;98297.52;106791;1253;26680;-74
2023/04/18 06:34:55;;;;;;;20.70;18.60;;;;;;;9.87;96.63;98299.00;106795;1276;22668;-75
2023/04/18 06:37:23;;;;;;;19.80;17.90;;;;;;;9.94;96.21;98294.50;106726;1276;22604;-76
2023/04/18 06:39:51;;;;;;;16.50;14.70;;;;;;;10.02;96.20;98298.80;106855;1276;22536;-74
2023/04/18 06:42:20;;;;;;;26.00;15.40;;;;;;;10.13;95.92;98298.18;106893;1276;22776;-75
2023/04/18 06:44:49;;;;;;;21.50;17.00;;;;;;;10.26;95.73;98294.41;107135;1276;22582;-77
2023/04/18 06:47:17;;;;;;;18.90;16.00;;;;;;;10.35;94.29;98296.79;106965;1276;25264;-75
2023/04/18 06:49:45;;;;;;;32.80;16.60;;;;;;;10.42;93.67;98302.52;106930;1276;23911;-75
2023/04/18 06:52:13;;;;;;;23.80;17.80;;;;;;;10.44;93.42;98301.86;106867;1276;22605;-78
2023/04/18 06:54:41;;;;;;;21.50;15.10;;;;;;;10.48;93.29;98304.30;106821;1276;24237;-76
2023/04/18 06:57:10;;;;;;;28.80;15.80;;;;;;;10.53;92.40;98305.68;106813;1276;22524;-76
2023/04/18 06:59:39;;;;;;;17.00;15.40;;;;;;;10.59;92.74;98299.64;106796;1276;22570;-77
2023/04/18 07:02:07;;;;;;;17.00;15.30;;;;;;;10.69;92.29;98306.62;106764;1276;24964;-75
2023/04/18 07:04:35;;;;;;;27.80;16.40;;;;;;;10.78;92.30;98306.34;106681;1276;22517;-75
2023/04/18 07:07:04;;;;;;;18.70;15.50;;;;;;;10.88;91.62;98309.60;106770;1276;22535;-76
2023/04/18 07:09:32;;;;;;;17.90;14.30;;;;;;;10.98;91.29;98308.40;106777;1276;25272;-76
2023/04/18 07:12:00;;;;;;;15.90;14.30;;;;;;;11.03;90.40;98309.89;106787;1276;25473;-75
2023/04/18 07:14:28;;;;;;;18.70;13.90;;;;;;;11.02;89.65;98312.50;106779;1276;25408;-77
2023/04/18 07:16:59;;;;;;;17.20;15.50;;;;;;;11.01;88.97;98316.23;106747;1276;24246;-76
2023/04/18 07:19:27;;;;;;;21.00;14.60;;;;;;;10.99;88.78;98318.52;106721;1276;24295;-74
2023/04/18 07:21:55;;;;;;;15.40;13.00;;;;;;;11.00;89.17;98321.91;106745;1276;22605;-75
2023/04/18 07:24:23;;;;;;;20.00;15.10;;;;;;;11.02;88.52;98322.20;106542;1276;25342;-75
2023/04/18 07:26:52;;;;;;;15.60;13.80;;;;;;;11.06;88.26;98322.77;106713;1276;22528;-75
2023/04/18 07:29:22;;;;;;;17.50;14.80;;;;;;;11.11;88.05;98327.02;106751;1276;22647;-75
2023/04/18 07:31:49;;;;;;;19.50;14.40;;;;;;;11.15;88.30;98327.89;106737;1276;24340;-75
2023/04/18 07:34:17;;;;;;;17.00;13.60;;;;;;;11.21;87.53;98327.81;106780;1276;24392;-76
2023/04/18 07:36:45;;;;;;;17.20;15.00;;;;;;;11.21;87.23;98332.94;106760;1276;22533;-76
2023/04/18 07:39:14;;;;;;;15.60;14.20;;;;;;;11.25;87.77;98337.08;106712;1276;25465;-76
2023/04/18 07:41:42;;;;;;;15.40;13.60;;;;;;;11.30;87.29;98337.42;106761;1276;22679;-76
2023/04/18 07:44:10;;;;;;;16.10;13.00;;;;;;;11.38;87.50;98337.65;106750;1276;25494;-76
2023/04/18 07:46:38;;;;;;;15.10;12.70;;;;;;;11.48;86.14;98337.18;106529;1276;22608;-76
2023/04/18 07:49:06;;;;;;;51.40;16.90;;;;;;;11.54;86.41;98339.12;106733;1276;22947;-76
2023/04/18 07:51:34;;;;;;;59.50;21.70;;;;;;;11.66;86.49;98340.79;106759;1276;25385;-76
2023/04/18 07:54:03;;;;;;;20.20;14.40;;;;;;;11.75;86.99;98339.82;106733;1276;23288;-76
2023/04/18 07:56:31;;;;;;;15.30;13.10;;;;;;;11.82;85.73;98341.55;106765;1276;22650;-76
2023/04/18 07:58:59;;;;;;;15.70;13.20;;;;;;;11.86;86.41;98340.85;106730;1276;22533;-76
2023/04/18 08:01:27;;;;;;;17.10;13.20;;;;;;;11.95;84.82;98342.00;106795;1276;25388;-76
2023/04/18 08:03:56;;;;;;;13.10;11.70;;;;;;;12.00;84.33;98339.96;106529;1276;22537;-76
2023/04/18 08:06:25;;;;;;;19.90;11.40;;;;;;;12.07;84.79;98342.16;106775;1276;25331;-76
2023/04/18 08:08:53;;;;;;;15.30;13.10;;;;;;;12.20;86.01;98340.36;106737;1276;22534;-76
2023/04/18 08:11:21;;;;;;;20.10;14.50;;;;;;;12.31;84.08;98345.02;106751;1276;22890;-76
2023/04/18 08:13:49;;;;;;;17.10;12.20;;;;;;;12.34;83.54;98340.80;106795;1276;24230;-76
2023/04/18 08:16:17;;;;;;;15.10;13.70;;;;;;;12.36;83.70;98343.30;106751;1275;22535;-76
2023/04/18 08:18:45;;;;;;;20.40;12.20;;;;;;;12.31;81.04;98340.98;106823;1276;22529;-76
2023/04/18 08:21:14;;;;;;;14.10;11.10;;;;;;;12.21;80.84;98348.34;106742;1275;25525;-76
2023/04/18 08:23:42;;;;;;;15.40;12.10;;;;;;;12.19;81.42;98345.80;106764;1276;22548;-76
2023/04/18 08:26:10;;;;;;;19.20;12.30;;;;;;;12.24;79.89;98350.71;106754;1276;25371;-76
2023/04/18 08:28:38;;;;;;;14.10;11.00;;;;;;;12.24;79.18;98347.22;106917;1276;25315;-77
2023/04/18 08:31:06;;;;;;;17.70;12.10;;;;;;;12.22;78.55;98354.54;106760;1276;23965;-76
2023/04/18 08:33:33;;;;;;;22.00;12.30;;;;;;;12.23;79.10;98357.93;106999;1276;22649;-77
2023/04/18 08:36:02;;;;;;;18.20;11.30;;;;;;;12.33;78.74;98354.67;107036;1276;22640;-76
2023/04/18 08:38:29;;;;;;;14.30;11.40;;;;;;;12.29;76.18;98352.41;106768;1276;24216;-76
2023/04/18 08:40:57;;;;;;;12.30;10.70;;;;;;;12.28;77.90;98359.57;106742;1276;22648;-79
2023/04/18 08:43:25;;;;;;;13.00;11.00;;;;;;;12.41;78.08;98353.70;107010;1276;25462;-77
2023/04/18 08:45:58;;;;;;;12.40;11.10;;;;;;;12.58;77.88;98354.85;107128;1276;25398;-80
2023/04/18 08:48:27;;;;;;;16.40;10.50;;;;;;;12.77;77.61;98354.34;107121;1276;25649;-76
2023/04/18 08:50:57;;;;;;;13.90;10.40;;;;;;;12.95;75.19;98360.25;107166;1253;25659;-77
2023/04/18 08:53:25;;;;;;;12.40;10.40;;;;;;;12.99;74.22;98360.88;107078;1276;23624;-77
2023/04/18 08:55:55;;;;;;;16.30;14.70;;;;;;;13.11;74.84;98359.91;107104;1253;22564;-78
2023/04/18 08:58:26;;;;;;;12.00;10.50;;;;;;;13.17;76.08;98360.27;107068;1276;25564;-76
2023/04/18 09:00:54;;;;;;;12.00;9.20;;;;;;;13.23;73.82;98349.70;106893;1273;22786;-77
2023/04/18 09:03:40;;;;;;;10.50;9.10;;;;;;;13.22;73.80;98353.09;106785;1276;23909;-76
2023/04/18 09:06:17;;;;;;;13.90;9.20;;;;;;;13.25;74.82;98354.38;106629;1276;23920;-76
2023/04/18 09:08:57;;;;;;;11.00;9.40;;;;;;;13.47;74.23;98359.05;106807;1276;24409;-75
2023/04/18 09:11:28;;;;;;;12.60;11.40;;;;;;;13.70;73.32;98358.02;106801;1276;22767;-75
2023/04/18 09:13:57;;;;;;;14.50;9.70;;;;;;;13.84;72.57;98355.50;106778;1276;22522;-74
2023/04/18 09:16:26;;;;;;;11.90;7.80;;;;;;;13.85;71.81;98353.30;106779;1276;24361;-76
2023/04/18 09:19:09;;;;;;;13.00;10.20;;;;;;;13.87;71.77;98355.42;106799;1276;22609;-75
2023/04/18 09:21:40;;;;;;;11.10;9.10;;;;;;;13.91;71.11;98358.32;106850;1276;24217;-75
2023/04/18 09:24:28;;;;;;;11.90;8.20;;;;;;;13.91;72.08;98358.15;106812;1276;22535;-75
2023/04/18 09:26:58;;;;;;;11.30;8.40;;;;;;;13.83;70.44;98359.38;106806;1276;22525;-76
2023/04/18 09:29:45;;;;;;;18.00;8.00;;;;;;;13.70;69.98;98353.66;106832;1276;22642;-76
2023/04/18 09:32:25;;;;;;;11.70;8.10;;;;;;;13.58;69.53;98349.58;106827;1276;25419;-76
2023/04/18 09:34:57;;;;;;;20.30;11.00;;;;;;;13.50;68.82;98349.61;106871;1276;24388;-76
2023/04/18 09:37:28;;;;;;;12.30;8.50;;;;;;;13.48;68.46;98351.75;106852;1276;25320;-76
2023/04/18 09:39:56;;;;;;;19.10;9.10;;;;;;;13.47;67.96;98353.15;106783;1276;22544;-75
2023/04/18 09:42:23;;;;;;;11.40;8.40;;;;;;;13.40;68.56;98353.19;106754;1276;26638;-75
2023/04/18 09:45:04;;;;;;;54.50;49.20;;;;;;;13.47;69.73;98356.88;106761;1276;24225;-75
2023/04/18 09:47:35;;;;;;;35.30;26.70;;;;;;;13.66;68.34;98349.93;106596;1276;22547;-74
2023/04/18 09:50:09;;;;;;;49.10;45.40;;;;;;;13.89;69.42;98351.58;106670;1276;25427;-77
2023/04/18 09:52:41;;;;;;;32.00;10.50;;;;;;;14.07;69.17;98351.90;106939;1276;23004;-75
2023/04/18 09:55:15;;;;;;;18.80;13.40;;;;;;;14.20;69.70;98351.94;106801;1276;22539;-75
2023/04/18 09:57:46;;;;;;;14.90;11.20;;;;;;;14.31;69.62;98349.59;106888;1271;24249;-75
2023/04/18 10:00:22;;;;;;;12.70;8.10;;;;;;;14.36;66.98;98350.94;106810;1276;24877;-75
2023/04/18 10:02:50;;;;;;;22.50;9.60;;;;;;;14.21;66.61;98354.69;106780;1276;22523;-75
2023/04/18 10:05:20;;;;;;;13.20;8.30;;;;;;;14.17;66.19;98351.80;106831;1276;24643;-76
2023/04/18 10:07:49;;;;;;;12.50;8.20;;;;;;;14.15;67.22;98350.89;106867;1276;24247;-76
2023/04/18 10:10:18;;;;;;;12.20;8.20;;;;;;;14.16;66.95;98353.07;107073;1276;24119;-75
2023/04/18 10:12:47;;;;;;;8.60;7.30;;;;;;;14.11;65.03;98351.84;106592;1276;22536;-75
2023/04/18 10:15:18;;;;;;;9.60;7.20;;;;;;;14.04;64.95;98349.68;106811;1276;25628;-75
2023/04/18 10:17:54;;;;;;;9.80;8.70;;;;;;;13.99;65.62;98350.84;106740;1253;22565;-75
2023/04/18 10:20:28;;;;;;;10.90;8.90;;;;;;;14.10;65.74;98350.20;106758;1276;22638;-75
2023/04/18 10:22:58;;;;;;;10.70;7.90;;;;;;;14.18;65.08;98346.90;106769;1276;25506;-75
2023/04/18 10:25:38;;;;;;;12.50;8.80;;;;;;;14.36;65.67;98343.88;106807;1276;23383;-75
2023/04/18 10:28:08;;;;;;;9.40;7.00;;;;;;;14.51;65.46;98343.48;106757;1276;25517;-76
2023/04/18 10:30:39;;;;;;;10.20;7.60;;;;;;;14.55;64.83;98341.25;106773;1276;25245;-75
2023/04/18 10:33:26;;;;;;;8.90;6.70;;;;;;;14.63;64.87;98340.54;106805;1276;22531;-77
2023/04/18 10:36:04;;;;;;;9.50;7.30;;;;;;;14.63;63.67;98337.73;106916;1275;24361;-76
2023/04/18 10:38:33;;;;;;;8.20;6.40;;;;;;;14.66;63.48;98335.92;107014;1275;25741;-76
2023/04/18 10:41:31;;;;;;;10.00;6.20;;;;;;;14.66;60.55;98330.60;106913;1275;24365;-74
2023/04/18 10:44:05;;;;;;;9.20;6.30;;;;;;;14.79;60.23;98329.02;106907;1275;23906;-74
2023/04/18 10:46:39;;;;;;;11.90;6.70;;;;;;;14.92;60.25;98329.41;106947;1275;22568;-76
2023/04/18 10:49:20;;;;;;;14.60;8.70;;;;;;;15.06;60.06;98326.95;106843;1275;22524;-76
2023/04/18 10:51:59;;;;;;;8.60;6.90;;;;;;;15.20;60.57;98325.33;106888;1275;22536;-75
2023/04/18 10:54:37;;;;;;;12.60;8.00;;;;;;;15.34;59.74;98324.25;106844;1275;26519;-75
2023/04/18 10:57:10;;;;;;;8.80;6.90;;;;;;;15.33;59.41;98323.61;106923;1275;22784;-75
2023/04/18 10:59:41;;;;;;;10.10;5.80;;;;;;;15.38;58.05;98317.65;106949;1275;25399;-75
2023/04/18 11:02:25;;;;;;;10.80;5.70;;;;;;;15.50;58.44;98322.00;106941;1275;22648;-74
2023/04/18 11:05:05;;;;;;;8.60;5.90;;;;;;;15.56;55.37;98322.06;107003;1275;22605;-74
2023/04/18 11:07:38;;;;;;;10.70;6.20;;;;;;;15.62;55.46;98315.04;107076;1275;22529;-75
2023/04/18 11:10:08;;;;;;;7.50;5.10;;;;;;;15.59;55.05;98318.84;107111;1275;22743;-75
2023/04/18 11:12:38;;;;;;;12.80;6.00;;;;;;;15.61;54.85;98319.88;107019;1275;25382;-75
2023/04/18 11:15:12;;;;;;;8.30;5.60;;;;;;;15.76;54.45;98316.73;106974;1275;24263;-75
2023/04/18 11:17:40;;;;;;;6.80;5.30;;;;;;;15.86;51.39;98314.08;106947;1275;24368;-75
2023/04/18 11:20:11;;;;;;;8.30;5.30;;;;;;;15.96;50.61;98307.98;106869;1275;22635;-75
2023/04/18 11:22:51;;;;;;;13.50;6.80;;;;;;;16.13;51.60;98310.64;107569;1275;25596;-75
2023/04/18 11:25:24;;;;;;;9.00;5.10;;;;;;;16.39;51.92;98311.69;107138;1275;23401;-76
2023/04/18 11:27:54;;;;;;;11.00;4.70;;;;;;;16.63;50.50;98311.23;107511;1275;22601;-76